CFTIW KCAK-CYXU
Flight info
| Callsign | CFTIW |
|---|---|
| Flight time | 0h 48m |
| Altitude | 6000 |
| Route | DCT |
| Aircraft | BE58/L-SDE3/1200 |
Departure
| Time | 2026-05-08 12:37 |
|---|---|
| Airport | Akron Canton Regional Airport (KCAK) |
Arrival
| Time | 2026-05-08 13:26 |
|---|---|
| Airport | London International Airport (CYXU) |
| Time | Latitude | Longitude | Altitude | Speed | Heading |
|---|---|---|---|---|---|
| 2026-05-08 12:29 | 40.91514 | -81.43838 | 1218 ft | 0 kts | 97° |
| 2026-05-08 12:32 | 40.91515 | -81.43850 | 1218 ft | 2 kts | 97° |
| 2026-05-08 12:32 | 40.91517 | -81.43870 | 1218 ft | 2 kts | 97° |
| 2026-05-08 12:33 | 40.91519 | -81.43891 | 1218 ft | 2 kts | 97° |
| 2026-05-08 12:33 | 40.91521 | -81.43908 | 1217 ft | 0 kts | 97° |
| 2026-05-08 12:33 | 40.91521 | -81.43903 | 1218 ft | 4 kts | 66° |
| 2026-05-08 12:34 | 40.91583 | -81.43915 | 1218 ft | 11 kts | 5° |
| 2026-05-08 12:34 | 40.91648 | -81.43868 | 1219 ft | 11 kts | 42° |
| 2026-05-08 12:34 | 40.91702 | -81.43806 | 1221 ft | 9 kts | 25° |
| 2026-05-08 12:34 | 40.91787 | -81.43810 | 1221 ft | 15 kts | 352° |
| 2026-05-08 12:35 | 40.91892 | -81.43825 | 1221 ft | 15 kts | 354° |
| 2026-05-08 12:35 | 40.91990 | -81.43836 | 1222 ft | 13 kts | 356° |
| 2026-05-08 12:35 | 40.92058 | -81.43772 | 1224 ft | 14 kts | 73° |
| 2026-05-08 12:35 | 40.92080 | -81.43661 | 1227 ft | 11 kts | 82° |
| 2026-05-08 12:36 | 40.92076 | -81.43622 | 1228 ft | 0 kts | 115° |
| 2026-05-08 12:36 | 40.92064 | -81.43598 | 1228 ft | 10 kts | 126° |
| 2026-05-08 12:36 | 40.92022 | -81.43575 | 1228 ft | 7 kts | 201° |
| 2026-05-08 12:37 | 40.91939 | -81.43675 | 1224 ft | 30 kts | 227° |
| 2026-05-08 12:37 | 40.91662 | -81.44072 | 1217 ft | 91 kts | 227° |
| 2026-05-08 12:37 | 40.91178 | -81.44766 | 1561 ft | 104 kts | 229° |
| 2026-05-08 12:37 | 40.90731 | -81.45444 | 2227 ft | 101 kts | 234° |
| 2026-05-08 12:38 | 40.90370 | -81.46182 | 2899 ft | 91 kts | 268° |
| 2026-05-08 12:38 | 40.90620 | -81.46958 | 3461 ft | 99 kts | 317° |
| 2026-05-08 12:38 | 40.91352 | -81.46998 | 3957 ft | 133 kts | 18° |
| 2026-05-08 12:38 | 40.92099 | -81.46181 | 4479 ft | 139 kts | 29° |
| 2026-05-08 12:39 | 40.92833 | -81.45361 | 5011 ft | 137 kts | 27° |
| 2026-05-08 12:39 | 40.93568 | -81.44578 | 5545 ft | 134 kts | 24° |
| 2026-05-08 12:39 | 40.94325 | -81.43859 | 5984 ft | 139 kts | 17° |
| 2026-05-08 12:39 | 40.95277 | -81.43573 | 6006 ft | 143 kts | 339° |
| 2026-05-08 12:40 | 40.96335 | -81.43693 | 6014 ft | 164 kts | 351° |
| 2026-05-08 12:40 | 40.97506 | -81.43560 | 6008 ft | 172 kts | 355° |
| 2026-05-08 12:40 | 40.98709 | -81.43396 | 5992 ft | 175 kts | 355° |
| 2026-05-08 12:40 | 40.99926 | -81.43232 | 5989 ft | 176 kts | 355° |
| 2026-05-08 12:41 | 41.01132 | -81.43070 | 5987 ft | 177 kts | 355° |
| 2026-05-08 12:41 | 41.02353 | -81.42906 | 5989 ft | 176 kts | 355° |
| 2026-05-08 12:41 | 41.03573 | -81.42743 | 5990 ft | 176 kts | 355° |
| 2026-05-08 12:41 | 41.04794 | -81.42580 | 5988 ft | 176 kts | 355° |
| 2026-05-08 12:42 | 41.06015 | -81.42416 | 5990 ft | 176 kts | 355° |
| 2026-05-08 12:42 | 41.07238 | -81.42252 | 5987 ft | 177 kts | 355° |
| 2026-05-08 12:42 | 41.08462 | -81.42087 | 5991 ft | 176 kts | 355° |
| 2026-05-08 12:42 | 41.09679 | -81.41923 | 5988 ft | 176 kts | 355° |
| 2026-05-08 12:43 | 41.10891 | -81.41761 | 5986 ft | 175 kts | 355° |
| 2026-05-08 12:43 | 41.12099 | -81.41599 | 5989 ft | 175 kts | 355° |
| 2026-05-08 12:43 | 41.13310 | -81.41437 | 5986 ft | 175 kts | 356° |
| 2026-05-08 12:43 | 41.14524 | -81.41273 | 5988 ft | 175 kts | 356° |
| 2026-05-08 12:44 | 41.15734 | -81.41110 | 5988 ft | 175 kts | 356° |
| 2026-05-08 12:44 | 41.16948 | -81.40946 | 6003 ft | 175 kts | 356° |
| 2026-05-08 12:44 | 41.18157 | -81.40784 | 6005 ft | 175 kts | 356° |
| 2026-05-08 12:44 | 41.19366 | -81.40621 | 6008 ft | 175 kts | 356° |
| 2026-05-08 12:45 | 41.20578 | -81.40457 | 6009 ft | 175 kts | 356° |
| 2026-05-08 12:45 | 41.21769 | -81.40296 | 6009 ft | 174 kts | 356° |
| 2026-05-08 12:45 | 41.22992 | -81.40133 | 6010 ft | 175 kts | 356° |
| 2026-05-08 12:45 | 41.24209 | -81.39968 | 6012 ft | 176 kts | 356° |
| 2026-05-08 12:46 | 41.25405 | -81.39806 | 6009 ft | 175 kts | 357° |
| 2026-05-08 12:46 | 41.26620 | -81.39642 | 6013 ft | 175 kts | 356° |
| 2026-05-08 12:46 | 41.27831 | -81.39479 | 6013 ft | 175 kts | 356° |
| 2026-05-08 12:46 | 41.29041 | -81.39315 | 6013 ft | 175 kts | 357° |
| 2026-05-08 12:47 | 41.30253 | -81.39151 | 6011 ft | 175 kts | 357° |
| 2026-05-08 12:47 | 41.31466 | -81.38988 | 6007 ft | 175 kts | 357° |
| 2026-05-08 12:47 | 41.32679 | -81.38824 | 6009 ft | 176 kts | 357° |
| 2026-05-08 12:47 | 41.33485 | -81.38714 | 6008 ft | 176 kts | 357° |
| 2026-05-08 12:48 | 41.34700 | -81.38549 | 6008 ft | 175 kts | 357° |
| 2026-05-08 12:48 | 41.35910 | -81.38386 | 6008 ft | 175 kts | 357° |
| 2026-05-08 12:48 | 41.37127 | -81.38221 | 6005 ft | 176 kts | 358° |
| 2026-05-08 12:48 | 41.38338 | -81.38057 | 5993 ft | 175 kts | 358° |
| 2026-05-08 12:49 | 41.39553 | -81.37893 | 5990 ft | 176 kts | 358° |
| 2026-05-08 12:49 | 41.40771 | -81.37728 | 5992 ft | 176 kts | 358° |
| 2026-05-08 12:49 | 41.41993 | -81.37562 | 5996 ft | 177 kts | 358° |
| 2026-05-08 12:49 | 41.43218 | -81.37395 | 5996 ft | 177 kts | 358° |
| 2026-05-08 12:50 | 41.44442 | -81.37229 | 5997 ft | 177 kts | 358° |
| 2026-05-08 12:50 | 41.45667 | -81.37063 | 5990 ft | 177 kts | 358° |
| 2026-05-08 12:50 | 41.46892 | -81.36896 | 5992 ft | 177 kts | 358° |
| 2026-05-08 12:50 | 41.48112 | -81.36730 | 5992 ft | 176 kts | 358° |
| 2026-05-08 12:51 | 41.49335 | -81.36564 | 5996 ft | 177 kts | 358° |
| 2026-05-08 12:51 | 41.51783 | -81.36231 | 6021 ft | 177 kts | 358° |
| 2026-05-08 12:51 | 41.53006 | -81.36065 | 6020 ft | 177 kts | 358° |
| 2026-05-08 12:52 | 41.54215 | -81.35901 | 6022 ft | 178 kts | 358° |
| 2026-05-08 12:52 | 41.56671 | -81.35565 | 6019 ft | 177 kts | 358° |
| 2026-05-08 12:52 | 41.57894 | -81.35399 | 6024 ft | 177 kts | 358° |
| 2026-05-08 12:53 | 41.59123 | -81.35231 | 6007 ft | 178 kts | 359° |
| 2026-05-08 12:53 | 41.60353 | -81.35064 | 6005 ft | 177 kts | 359° |
| 2026-05-08 12:53 | 41.61581 | -81.34895 | 6005 ft | 177 kts | 359° |
| 2026-05-08 12:53 | 41.62806 | -81.34728 | 6006 ft | 177 kts | 358° |
| 2026-05-08 12:54 | 41.64036 | -81.34561 | 6001 ft | 177 kts | 358° |
| 2026-05-08 12:54 | 41.65263 | -81.34393 | 6002 ft | 177 kts | 359° |
| 2026-05-08 12:54 | 41.66492 | -81.34226 | 6004 ft | 177 kts | 359° |
| 2026-05-08 12:54 | 41.67721 | -81.34057 | 6006 ft | 178 kts | 359° |
| 2026-05-08 12:55 | 41.68948 | -81.33889 | 6004 ft | 177 kts | 359° |
| 2026-05-08 12:55 | 41.70175 | -81.33721 | 6004 ft | 177 kts | 359° |
| 2026-05-08 12:55 | 41.71405 | -81.33553 | 6003 ft | 177 kts | 359° |
| 2026-05-08 12:55 | 41.72634 | -81.33384 | 6006 ft | 177 kts | 359° |
| 2026-05-08 12:56 | 41.73860 | -81.33217 | 6006 ft | 177 kts | 359° |
| 2026-05-08 12:56 | 41.75087 | -81.33048 | 6003 ft | 177 kts | 359° |
| 2026-05-08 12:56 | 41.76299 | -81.32882 | 6003 ft | 177 kts | 359° |
| 2026-05-08 12:56 | 41.77539 | -81.32712 | 6004 ft | 177 kts | 359° |
| 2026-05-08 12:57 | 41.78746 | -81.32547 | 6001 ft | 177 kts | 359° |
| 2026-05-08 12:57 | 41.79968 | -81.32379 | 6005 ft | 177 kts | 359° |
| 2026-05-08 12:57 | 41.81194 | -81.32211 | 6003 ft | 177 kts | 359° |
| 2026-05-08 12:57 | 41.82423 | -81.32042 | 6004 ft | 178 kts | 359° |
| 2026-05-08 12:58 | 41.83660 | -81.31872 | 6004 ft | 179 kts | 359° |
| 2026-05-08 12:58 | 41.84907 | -81.31700 | 5999 ft | 180 kts | 359° |
| 2026-05-08 12:58 | 41.86143 | -81.31529 | 6001 ft | 178 kts | 359° |
| 2026-05-08 12:58 | 41.87375 | -81.31360 | 5999 ft | 178 kts | 359° |
| 2026-05-08 12:59 | 41.88607 | -81.31191 | 6003 ft | 178 kts | 359° |
| 2026-05-08 12:59 | 41.89840 | -81.31021 | 5998 ft | 178 kts | 359° |
| 2026-05-08 12:59 | 41.91074 | -81.30852 | 6000 ft | 178 kts | 359° |
| 2026-05-08 12:59 | 41.92309 | -81.30681 | 5999 ft | 178 kts | 359° |
| 2026-05-08 13:00 | 41.93541 | -81.30512 | 6003 ft | 178 kts | 359° |
| 2026-05-08 13:00 | 41.94777 | -81.30341 | 6004 ft | 178 kts | 359° |
| 2026-05-08 13:00 | 41.95995 | -81.30173 | 6007 ft | 178 kts | 359° |
| 2026-05-08 13:00 | 41.97231 | -81.30002 | 6007 ft | 178 kts | 359° |
| 2026-05-08 13:01 | 41.98468 | -81.29831 | 6005 ft | 179 kts | 360° |
| 2026-05-08 13:01 | 41.99708 | -81.29660 | 6009 ft | 178 kts | 359° |
| 2026-05-08 13:01 | 42.00942 | -81.29489 | 6006 ft | 178 kts | 359° |
| 2026-05-08 13:01 | 42.02176 | -81.29319 | 6001 ft | 178 kts | 359° |
| 2026-05-08 13:02 | 42.03410 | -81.29149 | 6001 ft | 178 kts | 359° |
| 2026-05-08 13:02 | 42.04646 | -81.28977 | 6002 ft | 178 kts | 359° |
| 2026-05-08 13:02 | 42.05880 | -81.28807 | 6003 ft | 178 kts | 360° |
| 2026-05-08 13:02 | 42.07116 | -81.28636 | 5999 ft | 179 kts | 359° |
| 2026-05-08 13:03 | 42.08355 | -81.28464 | 5993 ft | 179 kts | 359° |
| 2026-05-08 13:03 | 42.09589 | -81.28293 | 5997 ft | 178 kts | 359° |
| 2026-05-08 13:03 | 42.10824 | -81.28121 | 5991 ft | 178 kts | 359° |
| 2026-05-08 13:03 | 42.12056 | -81.27951 | 5990 ft | 178 kts | 359° |
| 2026-05-08 13:04 | 42.13288 | -81.27780 | 5990 ft | 178 kts | 359° |
| 2026-05-08 13:04 | 42.14507 | -81.27611 | 5991 ft | 178 kts | 359° |
| 2026-05-08 13:04 | 42.15738 | -81.27440 | 5999 ft | 178 kts | 359° |
| 2026-05-08 13:04 | 42.16970 | -81.27269 | 5996 ft | 178 kts | 359° |
| 2026-05-08 13:05 | 42.18201 | -81.27098 | 5997 ft | 178 kts | 359° |
| 2026-05-08 13:05 | 42.19435 | -81.26927 | 5991 ft | 178 kts | 359° |
| 2026-05-08 13:05 | 42.20669 | -81.26755 | 5992 ft | 178 kts | 359° |
| 2026-05-08 13:05 | 42.21902 | -81.26583 | 5993 ft | 178 kts | 359° |
| 2026-05-08 13:06 | 42.23138 | -81.26411 | 5995 ft | 178 kts | 359° |
| 2026-05-08 13:06 | 42.24370 | -81.26239 | 5996 ft | 178 kts | 359° |
| 2026-05-08 13:06 | 42.25605 | -81.26068 | 5995 ft | 178 kts | 359° |
| 2026-05-08 13:06 | 42.26841 | -81.25896 | 5996 ft | 178 kts | 359° |
| 2026-05-08 13:07 | 42.28075 | -81.25724 | 5995 ft | 179 kts | 359° |
| 2026-05-08 13:07 | 42.29314 | -81.25550 | 5995 ft | 178 kts | 359° |
| 2026-05-08 13:07 | 42.30546 | -81.25379 | 5996 ft | 178 kts | 359° |
| 2026-05-08 13:07 | 42.31780 | -81.25207 | 5993 ft | 178 kts | 359° |
| 2026-05-08 13:08 | 42.33017 | -81.25034 | 5992 ft | 178 kts | 360° |
| 2026-05-08 13:08 | 42.34250 | -81.24862 | 5994 ft | 178 kts | 360° |
| 2026-05-08 13:08 | 42.35467 | -81.24692 | 5992 ft | 178 kts | 360° |
| 2026-05-08 13:08 | 42.36700 | -81.24519 | 5995 ft | 178 kts | 360° |
| 2026-05-08 13:09 | 42.37934 | -81.24347 | 5992 ft | 178 kts | 360° |
| 2026-05-08 13:09 | 42.39165 | -81.24175 | 5995 ft | 178 kts | 360° |
| 2026-05-08 13:09 | 42.40401 | -81.24002 | 5993 ft | 178 kts | 360° |
| 2026-05-08 13:09 | 42.41632 | -81.23830 | 5993 ft | 178 kts | 360° |
| 2026-05-08 13:10 | 42.42863 | -81.23657 | 5991 ft | 178 kts | 360° |
| 2026-05-08 13:10 | 42.44096 | -81.23485 | 5990 ft | 178 kts | 360° |
| 2026-05-08 13:10 | 42.45327 | -81.23312 | 5992 ft | 178 kts | 360° |
| 2026-05-08 13:10 | 42.46557 | -81.23140 | 5993 ft | 178 kts | 360° |
| 2026-05-08 13:11 | 42.47788 | -81.22967 | 5991 ft | 178 kts | 360° |
| 2026-05-08 13:11 | 42.49001 | -81.22797 | 5991 ft | 178 kts | 0° |
| 2026-05-08 13:11 | 42.50232 | -81.22624 | 5990 ft | 178 kts | 0° |
| 2026-05-08 13:11 | 42.51460 | -81.22451 | 5988 ft | 178 kts | 0° |
| 2026-05-08 13:12 | 42.52689 | -81.22279 | 5990 ft | 177 kts | 0° |
| 2026-05-08 13:12 | 42.53918 | -81.22106 | 5993 ft | 177 kts | 0° |
| 2026-05-08 13:12 | 42.55149 | -81.21933 | 5991 ft | 177 kts | 0° |
| 2026-05-08 13:12 | 42.56376 | -81.21761 | 5989 ft | 177 kts | 0° |
| 2026-05-08 13:13 | 42.57603 | -81.21588 | 5990 ft | 177 kts | 0° |
| 2026-05-08 13:13 | 42.58835 | -81.21415 | 5989 ft | 177 kts | 0° |
| 2026-05-08 13:13 | 42.60061 | -81.21242 | 5990 ft | 178 kts | 0° |
| 2026-05-08 13:13 | 42.61290 | -81.21069 | 5991 ft | 177 kts | 0° |
| 2026-05-08 13:14 | 42.62518 | -81.20896 | 5991 ft | 177 kts | 0° |
| 2026-05-08 13:14 | 42.63732 | -81.20725 | 5991 ft | 177 kts | 1° |
| 2026-05-08 13:14 | 42.64958 | -81.20552 | 5992 ft | 177 kts | 1° |
| 2026-05-08 13:14 | 42.66188 | -81.20378 | 5991 ft | 178 kts | 1° |
| 2026-05-08 13:15 | 42.67434 | -81.20205 | 5991 ft | 178 kts | 1° |
| 2026-05-08 13:15 | 42.68647 | -81.20030 | 5990 ft | 178 kts | 1° |
| 2026-05-08 13:15 | 42.69885 | -81.19854 | 5986 ft | 179 kts | 1° |
| 2026-05-08 13:15 | 42.71123 | -81.19685 | 5984 ft | 179 kts | 1° |
| 2026-05-08 13:16 | 42.72362 | -81.19506 | 5986 ft | 179 kts | 1° |
| 2026-05-08 13:16 | 42.73599 | -81.19331 | 5985 ft | 179 kts | 1° |
| 2026-05-08 13:16 | 42.74839 | -81.19155 | 5983 ft | 178 kts | 1° |
| 2026-05-08 13:16 | 42.76072 | -81.18980 | 5982 ft | 178 kts | 1° |
| 2026-05-08 13:17 | 42.77306 | -81.18807 | 5982 ft | 178 kts | 1° |
| 2026-05-08 13:17 | 42.78528 | -81.18633 | 5911 ft | 176 kts | 1° |
| 2026-05-08 13:17 | 42.79750 | -81.18459 | 5672 ft | 177 kts | 1° |
| 2026-05-08 13:17 | 42.80973 | -81.18286 | 5431 ft | 176 kts | 1° |
| 2026-05-08 13:18 | 42.82190 | -81.18114 | 5196 ft | 175 kts | 1° |
| 2026-05-08 13:18 | 42.83399 | -81.17942 | 4982 ft | 174 kts | 2° |
| 2026-05-08 13:18 | 42.84604 | -81.17771 | 4768 ft | 173 kts | 2° |
| 2026-05-08 13:18 | 42.85803 | -81.17601 | 4536 ft | 173 kts | 2° |
| 2026-05-08 13:19 | 42.86997 | -81.17431 | 4315 ft | 172 kts | 2° |
| 2026-05-08 13:19 | 42.88189 | -81.17262 | 4100 ft | 172 kts | 2° |
| 2026-05-08 13:19 | 42.89360 | -81.17095 | 3905 ft | 171 kts | 2° |
| 2026-05-08 13:19 | 42.90544 | -81.16927 | 3707 ft | 171 kts | 2° |
| 2026-05-08 13:20 | 42.91727 | -81.16759 | 3520 ft | 171 kts | 2° |
| 2026-05-08 13:20 | 42.92907 | -81.16596 | 3338 ft | 170 kts | 0° |
| 2026-05-08 13:20 | 42.94084 | -81.16571 | 3153 ft | 169 kts | 357° |
| 2026-05-08 13:20 | 42.95260 | -81.16516 | 2969 ft | 171 kts | 6° |
| 2026-05-08 13:21 | 42.96388 | -81.15986 | 2793 ft | 174 kts | 24° |
| 2026-05-08 13:21 | 42.97433 | -81.15136 | 2617 ft | 175 kts | 32° |
| 2026-05-08 13:21 | 42.98466 | -81.14259 | 2444 ft | 173 kts | 20° |
| 2026-05-08 13:21 | 42.99635 | -81.13975 | 2284 ft | 170 kts | 1° |
| 2026-05-08 13:22 | 43.00816 | -81.13874 | 2139 ft | 169 kts | 1° |
| 2026-05-08 13:22 | 43.01992 | -81.13775 | 2004 ft | 170 kts | 1° |
| 2026-05-08 13:22 | 43.03064 | -81.13269 | 1967 ft | 161 kts | 41° |
| 2026-05-08 13:22 | 43.03487 | -81.11937 | 1966 ft | 154 kts | 89° |
| 2026-05-08 13:23 | 43.03436 | -81.10530 | 1959 ft | 144 kts | 93° |
| 2026-05-08 13:23 | 43.03438 | -81.09209 | 1959 ft | 133 kts | 83° |
| 2026-05-08 13:23 | 43.03659 | -81.08079 | 2080 ft | 111 kts | 47° |
| 2026-05-08 13:23 | 43.04274 | -81.07788 | 2135 ft | 96 kts | 347° |
| 2026-05-08 13:24 | 43.04709 | -81.08341 | 2081 ft | 93 kts | 281° |
| 2026-05-08 13:24 | 43.04822 | -81.09248 | 1988 ft | 96 kts | 271° |
| 2026-05-08 13:24 | 43.04695 | -81.10038 | 1903 ft | 85 kts | 256° |
| 2026-05-08 13:24 | 43.04551 | -81.10841 | 1741 ft | 88 kts | 261° |
| 2026-05-08 13:25 | 43.04441 | -81.11664 | 1539 ft | 89 kts | 262° |
| 2026-05-08 13:25 | 43.04333 | -81.12492 | 1330 ft | 88 kts | 263° |
| 2026-05-08 13:25 | 43.04226 | -81.13317 | 1140 ft | 89 kts | 264° |
| 2026-05-08 13:25 | 43.04116 | -81.14148 | 958 ft | 88 kts | 263° |
| 2026-05-08 13:26 | 43.04010 | -81.14901 | 905 ft | 71 kts | 262° |
| 2026-05-08 13:26 | 43.03945 | -81.15384 | 903 ft | 41 kts | 262° |
| 2026-05-08 13:26 | 43.03907 | -81.15684 | 902 ft | 18 kts | 259° |
| 2026-05-08 13:26 | 43.03877 | -81.15825 | 902 ft | 11 kts | 238° |
| 2026-05-08 13:27 | 43.03811 | -81.15820 | 902 ft | 11 kts | 135° |
| 2026-05-08 13:27 | 43.03744 | -81.15738 | 902 ft | 15 kts | 141° |
| 2026-05-08 13:27 | 43.03648 | -81.15622 | 903 ft | 21 kts | 140° |
| 2026-05-08 13:27 | 43.03539 | -81.15494 | 903 ft | 21 kts | 137° |
| 2026-05-08 13:28 | 43.03431 | -81.15362 | 903 ft | 21 kts | 139° |
| 2026-05-08 13:28 | 43.03313 | -81.15222 | 903 ft | 25 kts | 139° |
| 2026-05-08 13:28 | 43.03171 | -81.15050 | 903 ft | 29 kts | 139° |
| 2026-05-08 13:28 | 43.03030 | -81.14884 | 903 ft | 25 kts | 141° |
| 2026-05-08 13:29 | 43.02928 | -81.14759 | 903 ft | 16 kts | 138° |
| 2026-05-08 13:29 | 43.02872 | -81.14718 | 903 ft | 6 kts | 231° |
| 2026-05-08 13:29 | 43.02867 | -81.14763 | 903 ft | 5 kts | 287° |
| 2026-05-08 13:29 | 43.02878 | -81.14779 | 903 ft | 0 kts | 320° |